sensor_id;sensor_type;location;lat;lon;timestamp;temperature;humidity
68842;SHT35;55849;48.482;2.332;2023-06-14T00:00:57;23.34;43.76
68842;SHT35;55849;48.482;2.332;2023-06-14T00:03:59;23.30;43.77
68842;SHT35;55849;48.482;2.332;2023-06-14T00:07:01;23.23;43.70
68842;SHT35;55849;48.482;2.332;2023-06-14T00:10:03;23.20;43.93
68842;SHT35;55849;48.482;2.332;2023-06-14T00:13:06;23.12;44.19
68842;SHT35;55849;48.482;2.332;2023-06-14T00:16:08;23.05;44.29
68842;SHT35;55849;48.482;2.332;2023-06-14T00:19:10;23.00;44.48
68842;SHT35;55849;48.482;2.332;2023-06-14T00:22:11;22.95;44.53
68842;SHT35;55849;48.482;2.332;2023-06-14T00:25:13;22.89;44.65
68842;SHT35;55849;48.482;2.332;2023-06-14T00:28:16;22.84;44.71
68842;SHT35;55849;48.482;2.332;2023-06-14T00:31:18;22.78;44.83
68842;SHT35;55849;48.482;2.332;2023-06-14T00:34:20;22.75;44.89
68842;SHT35;55849;48.482;2.332;2023-06-14T00:37:21;22.69;45.04
68842;SHT35;55849;48.482;2.332;2023-06-14T00:40:24;22.61;44.93
68842;SHT35;55849;48.482;2.332;2023-06-14T00:43:27;22.58;45.02
68842;SHT35;55849;48.482;2.332;2023-06-14T00:46:28;22.54;44.92
68842;SHT35;55849;48.482;2.332;2023-06-14T00:49:30;22.53;44.74
68842;SHT35;55849;48.482;2.332;2023-06-14T00:52:32;22.43;45.03
68842;SHT35;55849;48.482;2.332;2023-06-14T00:55:34;22.37;45.19
68842;SHT35;55849;48.482;2.332;2023-06-14T00:58:37;22.30;45.26
68842;SHT35;55849;48.482;2.332;2023-06-14T01:01:39;22.26;45.53
68842;SHT35;55849;48.482;2.332;2023-06-14T01:04:46;22.20;45.62
68842;SHT35;55849;48.482;2.332;2023-06-14T01:08:05;22.14;45.74
68842;SHT35;55849;48.482;2.332;2023-06-14T01:11:11;22.10;45.69
68842;SHT35;55849;48.482;2.332;2023-06-14T01:14:16;22.05;45.68
68842;SHT35;55849;48.482;2.332;2023-06-14T01:17:18;22.01;45.67
68842;SHT35;55849;48.482;2.332;2023-06-14T01:20:21;21.95;46.08
68842;SHT35;55849;48.482;2.332;2023-06-14T01:23:25;21.91;46.16
68842;SHT35;55849;48.482;2.332;2023-06-14T01:26:33;21.84;46.18
68842;SHT35;55849;48.482;2.332;2023-06-14T01:29:34;21.79;45.98
68842;SHT35;55849;48.482;2.332;2023-06-14T01:32:37;21.75;45.85
68842;SHT35;55849;48.482;2.332;2023-06-14T01:35:38;21.75;46.02
68842;SHT35;55849;48.482;2.332;2023-06-14T01:38:42;21.71;45.92
68842;SHT35;55849;48.482;2.332;2023-06-14T01:41:45;21.67;46.13
68842;SHT35;55849;48.482;2.332;2023-06-14T01:44:48;21.67;45.88
68842;SHT35;55849;48.482;2.332;2023-06-14T01:47:50;21.60;45.91
68842;SHT35;55849;48.482;2.332;2023-06-14T01:50:52;21.54;46.17
68842;SHT35;55849;48.482;2.332;2023-06-14T01:53:55;21.49;46.19
68842;SHT35;55849;48.482;2.332;2023-06-14T01:56:57;21.40;46.26
68842;SHT35;55849;48.482;2.332;2023-06-14T01:59:59;21.36;46.41
68842;SHT35;55849;48.482;2.332;2023-06-14T02:03:01;21.33;46.27
68842;SHT35;55849;48.482;2.332;2023-06-14T02:06:04;21.32;46.40
68842;SHT35;55849;48.482;2.332;2023-06-14T02:09:07;21.25;46.50
68842;SHT35;55849;48.482;2.332;2023-06-14T02:12:09;21.19;46.73
68842;SHT35;55849;48.482;2.332;2023-06-14T02:15:11;21.15;46.74
68842;SHT35;55849;48.482;2.332;2023-06-14T02:18:17;21.13;46.65
68842;SHT35;55849;48.482;2.332;2023-06-14T02:21:18;21.06;46.63
68842;SHT35;55849;48.482;2.332;2023-06-14T02:24:21;21.02;46.84
68842;SHT35;55849;48.482;2.332;2023-06-14T02:27:23;20.96;46.82
68842;SHT35;55849;48.482;2.332;2023-06-14T02:30:25;20.95;46.69
68842;SHT35;55849;48.482;2.332;2023-06-14T02:33:26;20.91;46.81
68842;SHT35;55849;48.482;2.332;2023-06-14T02:36:28;20.85;46.93
68842;SHT35;55849;48.482;2.332;2023-06-14T02:39:32;20.78;46.87
68842;SHT35;55849;48.482;2.332;2023-06-14T02:42:33;20.73;47.09
68842;SHT35;55849;48.482;2.332;2023-06-14T02:45:35;20.67;47.31
68842;SHT35;55849;48.482;2.332;2023-06-14T02:48:36;20.65;47.18
68842;SHT35;55849;48.482;2.332;2023-06-14T02:51:38;20.60;47.08
68842;SHT35;55849;48.482;2.332;2023-06-14T02:54:41;20.58;47.28
68842;SHT35;55849;48.482;2.332;2023-06-14T02:57:43;20.54;47.06
68842;SHT35;55849;48.482;2.332;2023-06-14T03:00:45;20.49;47.12
68842;SHT35;55849;48.482;2.332;2023-06-14T03:03:46;20.46;46.97
68842;SHT35;55849;48.482;2.332;2023-06-14T03:06:48;20.43;47.14
68842;SHT35;55849;48.482;2.332;2023-06-14T03:09:51;20.39;47.07
68842;SHT35;55849;48.482;2.332;2023-06-14T03:12:53;20.34;47.30
68842;SHT35;55849;48.482;2.332;2023-06-14T03:15:55;20.30;47.43
68842;SHT35;55849;48.482;2.332;2023-06-14T03:18:56;20.28;47.52
68842;SHT35;55849;48.482;2.332;2023-06-14T03:21:58;20.19;47.58
68842;SHT35;55849;48.482;2.332;2023-06-14T03:25:01;20.21;47.63
68842;SHT35;55849;48.482;2.332;2023-06-14T03:28:04;20.15;47.73
68842;SHT35;55849;48.482;2.332;2023-06-14T03:31:06;20.11;47.67
68842;SHT35;55849;48.482;2.332;2023-06-14T03:34:09;20.06;47.70
68842;SHT35;55849;48.482;2.332;2023-06-14T03:37:10;20.01;47.83
68842;SHT35;55849;48.482;2.332;2023-06-14T03:40:17;19.97;47.85
68842;SHT35;55849;48.482;2.332;2023-06-14T03:43:20;19.97;47.91
68842;SHT35;55849;48.482;2.332;2023-06-14T03:46:21;19.92;47.81
68842;SHT35;55849;48.482;2.332;2023-06-14T03:49:23;19.87;47.90
68842;SHT35;55849;48.482;2.332;2023-06-14T03:52:25;19.84;48.01
68842;SHT35;55849;48.482;2.332;2023-06-14T03:55:28;19.81;48.17
68842;SHT35;55849;48.482;2.332;2023-06-14T03:58:31;19.78;48.01
68842;SHT35;55849;48.482;2.332;2023-06-14T04:01:33;19.71;48.24
68842;SHT35;55849;48.482;2.332;2023-06-14T04:04:35;19.71;48.28
68842;SHT35;55849;48.482;2.332;2023-06-14T04:07:37;19.71;48.42
68842;SHT35;55849;48.482;2.332;2023-06-14T04:10:41;19.70;48.61
68842;SHT35;55849;48.482;2.332;2023-06-14T04:13:43;19.64;48.65
68842;SHT35;55849;48.482;2.332;2023-06-14T04:16:45;19.60;48.62
68842;SHT35;55849;48.482;2.332;2023-06-14T04:19:46;19.57;48.79
68842;SHT35;55849;48.482;2.332;2023-06-14T04:22:48;19.56;48.86
68842;SHT35;55849;48.482;2.332;2023-06-14T04:25:51;19.50;48.66
68842;SHT35;55849;48.482;2.332;2023-06-14T04:28:53;19.53;48.80
68842;SHT35;55849;48.482;2.332;2023-06-14T04:31:56;19.50;48.57
68842;SHT35;55849;48.482;2.332;2023-06-14T04:35:01;19.50;48.79
68842;SHT35;55849;48.482;2.332;2023-06-14T04:38:04;19.49;49.10
68842;SHT35;55849;48.482;2.332;2023-06-14T04:41:10;19.49;49.13
68842;SHT35;55849;48.482;2.332;2023-06-14T04:44:12;19.50;49.31
68842;SHT35;55849;48.482;2.332;2023-06-14T04:47:13;19.50;49.50
68842;SHT35;55849;48.482;2.332;2023-06-14T04:50:17;19.46;49.52
68842;SHT35;55849;48.482;2.332;2023-06-14T04:53:19;19.43;49.88
68842;SHT35;55849;48.482;2.332;2023-06-14T04:56:24;19.42;50.09
68842;SHT35;55849;48.482;2.332;2023-06-14T04:59:26;19.37;50.17
68842;SHT35;55849;48.482;2.332;2023-06-14T05:02:28;19.37;50.29
68842;SHT35;55849;48.482;2.332;2023-06-14T05:05:31;19.35;50.60
68842;SHT35;55849;48.482;2.332;2023-06-14T05:08:33;19.37;50.63
68842;SHT35;55849;48.482;2.332;2023-06-14T05:11:36;19.37;50.81
68842;SHT35;55849;48.482;2.332;2023-06-14T05:14:37;19.37;51.20
68842;SHT35;55849;48.482;2.332;2023-06-14T05:17:39;19.39;51.02
68842;SHT35;55849;48.482;2.332;2023-06-14T05:20:41;19.42;51.26
68842;SHT35;55849;48.482;2.332;2023-06-14T05:23:43;19.40;51.46
68842;SHT35;55849;48.482;2.332;2023-06-14T05:26:46;19.43;51.96
68842;SHT35;55849;48.482;2.332;2023-06-14T05:29:47;19.40;52.15
68842;SHT35;55849;48.482;2.332;2023-06-14T05:32:50;19.43;52.36
68842;SHT35;55849;48.482;2.332;2023-06-14T05:35:53;19.42;52.48
68842;SHT35;55849;48.482;2.332;2023-06-14T05:38:55;19.47;52.81
68842;SHT35;55849;48.482;2.332;2023-06-14T05:42:00;19.46;53.07
68842;SHT35;55849;48.482;2.332;2023-06-14T05:45:02;19.47;53.23
68842;SHT35;55849;48.482;2.332;2023-06-14T05:48:05;19.49;53.45
68842;SHT35;55849;48.482;2.332;2023-06-14T05:51:06;19.52;53.70
68842;SHT35;55849;48.482;2.332;2023-06-14T05:54:09;19.47;53.98
68842;SHT35;55849;48.482;2.332;2023-06-14T05:57:12;19.53;54.21
68842;SHT35;55849;48.482;2.332;2023-06-14T06:00:14;19.54;54.76
68842;SHT35;55849;48.482;2.332;2023-06-14T06:03:16;19.59;54.70
68842;SHT35;55849;48.482;2.332;2023-06-14T06:06:18;19.60;55.09
68842;SHT35;55849;48.482;2.332;2023-06-14T06:09:19;19.62;55.10
68842;SHT35;55849;48.482;2.332;2023-06-14T06:12:22;19.63;55.60
68842;SHT35;55849;48.482;2.332;2023-06-14T06:15:24;19.66;55.74
68842;SHT35;55849;48.482;2.332;2023-06-14T06:18:26;19.71;56.17
68842;SHT35;55849;48.482;2.332;2023-06-14T06:21:27;19.73;56.58
68842;SHT35;55849;48.482;2.332;2023-06-14T06:24:29;19.74;56.93
68842;SHT35;55849;48.482;2.332;2023-06-14T06:27:32;19.80;56.96
68842;SHT35;55849;48.482;2.332;2023-06-14T06:30:34;19.82;57.43
68842;SHT35;55849;48.482;2.332;2023-06-14T06:33:36;19.87;57.40
68842;SHT35;55849;48.482;2.332;2023-06-14T06:36:39;19.91;57.56
68842;SHT35;55849;48.482;2.332;2023-06-14T06:39:42;19.94;58.00
68842;SHT35;55849;48.482;2.332;2023-06-14T06:42:45;19.97;57.97
68842;SHT35;55849;48.482;2.332;2023-06-14T06:45:46;20.02;58.06
68842;SHT35;55849;48.482;2.332;2023-06-14T06:48:48;20.05;58.73
68842;SHT35;55849;48.482;2.332;2023-06-14T06:51:59;20.11;59.04
68842;SHT35;55849;48.482;2.332;2023-06-14T06:55:02;20.15;59.11
68842;SHT35;55849;48.482;2.332;2023-06-14T06:58:05;20.21;58.94
68842;SHT35;55849;48.482;2.332;2023-06-14T07:01:06;20.26;58.77
68842;SHT35;55849;48.482;2.332;2023-06-14T07:04:09;20.29;58.06
68842;SHT35;55849;48.482;2.332;2023-06-14T07:07:11;20.32;58.20
68842;SHT35;55849;48.482;2.332;2023-06-14T07:10:12;20.36;58.62
68842;SHT35;55849;48.482;2.332;2023-06-14T07:13:15;20.40;59.26
68842;SHT35;55849;48.482;2.332;2023-06-14T07:16:17;20.44;58.97
68842;SHT35;55849;48.482;2.332;2023-06-14T07:19:19;20.47;59.26
68842;SHT35;55849;48.482;2.332;2023-06-14T07:22:21;20.51;59.83
68842;SHT35;55849;48.482;2.332;2023-06-14T07:25:22;20.56;59.47
68842;SHT35;55849;48.482;2.332;2023-06-14T07:28:25;20.60;59.25
68842;SHT35;55849;48.482;2.332;2023-06-14T07:31:27;20.63;58.92
68842;SHT35;55849;48.482;2.332;2023-06-14T07:34:28;20.67;58.58
68842;SHT35;55849;48.482;2.332;2023-06-14T07:37:30;20.73;56.81
68842;SHT35;55849;48.482;2.332;2023-06-14T07:40:32;20.74;57.62
68842;SHT35;55849;48.482;2.332;2023-06-14T07:43:35;20.78;57.62
68842;SHT35;55849;48.482;2.332;2023-06-14T07:46:36;20.82;57.39
68842;SHT35;55849;48.482;2.332;2023-06-14T07:49:38;20.85;57.21
68842;SHT35;55849;48.482;2.332;2023-06-14T07:52:39;20.91;57.13
68842;SHT35;55849;48.482;2.332;2023-06-14T07:55:41;20.95;55.85
68842;SHT35;55849;48.482;2.332;2023-06-14T07:58:44;20.98;56.12
68842;SHT35;55849;48.482;2.332;2023-06-14T08:01:46;21.06;56.06
68842;SHT35;55849;48.482;2.332;2023-06-14T08:04:48;21.08;55.98
68842;SHT35;55849;48.482;2.332;2023-06-14T08:07:50;21.10;55.09
68842;SHT35;55849;48.482;2.332;2023-06-14T08:10:51;21.13;55.52
68842;SHT35;55849;48.482;2.332;2023-06-14T08:13:54;21.20;55.52
68842;SHT35;55849;48.482;2.332;2023-06-14T08:16:56;21.23;55.20
68842;SHT35;55849;48.482;2.332;2023-06-14T08:19:57;21.26;54.91
68842;SHT35;55849;48.482;2.332;2023-06-14T08:22:59;21.33;54.94
68842;SHT35;55849;48.482;2.332;2023-06-14T08:26:02;21.37;53.53
68842;SHT35;55849;48.482;2.332;2023-06-14T08:29:05;21.43;54.08
68842;SHT35;55849;48.482;2.332;2023-06-14T08:32:08;21.46;53.87
68842;SHT35;55849;48.482;2.332;2023-06-14T08:35:09;21.50;53.74
68842;SHT35;55849;48.482;2.332;2023-06-14T08:38:12;21.55;53.63
68842;SHT35;55849;48.482;2.332;2023-06-14T08:41:20;21.58;53.55
68842;SHT35;55849;48.482;2.332;2023-06-14T08:44:24;21.64;52.77
68842;SHT35;55849;48.482;2.332;2023-06-14T08:47:26;21.69;52.56
68842;SHT35;55849;48.482;2.332;2023-06-14T08:50:30;21.75;52.63
68842;SHT35;55849;48.482;2.332;2023-06-14T08:53:36;21.84;53.06
68842;SHT35;55849;48.482;2.332;2023-06-14T08:56:42;21.89;52.83
68842;SHT35;55849;48.482;2.332;2023-06-14T08:59:47;21.92;52.70
68842;SHT35;55849;48.482;2.332;2023-06-14T09:02:53;21.98;53.27
68842;SHT35;55849;48.482;2.332;2023-06-14T09:05:58;22.01;52.94
68842;SHT35;55849;48.482;2.332;2023-06-14T09:09:01;22.09;52.21
68842;SHT35;55849;48.482;2.332;2023-06-14T09:12:07;22.14;48.94
68842;SHT35;55849;48.482;2.332;2023-06-14T09:15:12;22.23;49.80
68842;SHT35;55849;48.482;2.332;2023-06-14T09:18:14;22.29;46.69
68842;SHT35;55849;48.482;2.332;2023-06-14T09:21:17;22.33;47.94
68842;SHT35;55849;48.482;2.332;2023-06-14T09:24:19;22.41;48.05
68842;SHT35;55849;48.482;2.332;2023-06-14T09:27:20;22.48;48.39
68842;SHT35;55849;48.482;2.332;2023-06-14T09:30:23;22.53;45.88
68842;SHT35;55849;48.482;2.332;2023-06-14T09:33:25;22.60;47.81
68842;SHT35;55849;48.482;2.332;2023-06-14T09:36:28;22.65;47.05
68842;SHT35;55849;48.482;2.332;2023-06-14T09:39:30;22.71;47.60
68842;SHT35;55849;48.482;2.332;2023-06-14T09:42:31;22.76;45.91
68842;SHT35;55849;48.482;2.332;2023-06-14T09:45:38;22.81;47.23
68842;SHT35;55849;48.482;2.332;2023-06-14T09:48:41;22.85;45.43
68842;SHT35;55849;48.482;2.332;2023-06-14T09:51:43;22.94;44.20
68842;SHT35;55849;48.482;2.332;2023-06-14T09:54:47;22.99;42.23
68842;SHT35;55849;48.482;2.332;2023-06-14T09:57:50;23.02;44.19
68842;SHT35;55849;48.482;2.332;2023-06-14T10:00:54;23.10;44.78
68842;SHT35;55849;48.482;2.332;2023-06-14T10:04:03;23.19;42.80
68842;SHT35;55849;48.482;2.332;2023-06-14T10:07:05;23.23;42.83
68842;SHT35;55849;48.482;2.332;2023-06-14T10:10:07;23.30;42.84
68842;SHT35;55849;48.482;2.332;2023-06-14T10:13:10;23.36;41.07
68842;SHT35;55849;48.482;2.332;2023-06-14T10:16:18;23.40;41.79
68842;SHT35;55849;48.482;2.332;2023-06-14T10:19:23;23.48;42.42
68842;SHT35;55849;48.482;2.332;2023-06-14T10:22:32;23.54;41.72
68842;SHT35;55849;48.482;2.332;2023-06-14T10:25:35;23.61;41.69
68842;SHT35;55849;48.482;2.332;2023-06-14T10:28:37;23.68;43.43
68842;SHT35;55849;48.482;2.332;2023-06-14T10:31:44;23.75;43.00
68842;SHT35;55849;48.482;2.332;2023-06-14T10:34:53;23.82;42.94
68842;SHT35;55849;48.482;2.332;2023-06-14T10:37:55;23.86;43.26
68842;SHT35;55849;48.482;2.332;2023-06-14T10:40:57;23.93;42.82
68842;SHT35;55849;48.482;2.332;2023-06-14T10:47:33;24.07;42.05
68842;SHT35;55849;48.482;2.332;2023-06-14T10:50:42;24.12;42.67
68842;SHT35;55849;48.482;2.332;2023-06-14T10:53:45;24.20;42.30
68842;SHT35;55849;48.482;2.332;2023-06-14T10:56:48;24.28;40.49
68842;SHT35;55849;48.482;2.332;2023-06-14T10:59:49;24.37;41.76
68842;SHT35;55849;48.482;2.332;2023-06-14T11:06:47;24.52;40.86
68842;SHT35;55849;48.482;2.332;2023-06-14T11:10:05;24.62;40.38
68842;SHT35;55849;48.482;2.332;2023-06-14T11:13:11;24.71;41.15
68842;SHT35;55849;48.482;2.332;2023-06-14T11:16:14;24.79;41.21
68842;SHT35;55849;48.482;2.332;2023-06-14T11:19:18;24.85;40.03
68842;SHT35;55849;48.482;2.332;2023-06-14T11:22:19;24.92;41.20
68842;SHT35;55849;48.482;2.332;2023-06-14T11:25:21;24.97;37.31
68842;SHT35;55849;48.482;2.332;2023-06-14T11:28:23;25.07;38.83
68842;SHT35;55849;48.482;2.332;2023-06-14T11:31:26;25.14;38.93
68842;SHT35;55849;48.482;2.332;2023-06-14T11:34:29;25.23;39.19
68842;SHT35;55849;48.482;2.332;2023-06-14T11:37:31;25.30;40.54
68842;SHT35;55849;48.482;2.332;2023-06-14T11:40:34;25.37;39.97
68842;SHT35;55849;48.482;2.332;2023-06-14T11:43:35;25.45;40.61
68842;SHT35;55849;48.482;2.332;2023-06-14T11:46:38;25.53;41.10
68842;SHT35;55849;48.482;2.332;2023-06-14T11:49:41;25.68;39.30
68842;SHT35;55849;48.482;2.332;2023-06-14T11:52:43;25.76;39.80
68842;SHT35;55849;48.482;2.332;2023-06-14T11:55:45;25.87;39.23
68842;SHT35;55849;48.482;2.332;2023-06-14T11:58:47;25.96;39.30
68842;SHT35;55849;48.482;2.332;2023-06-14T12:01:49;26.07;38.48
68842;SHT35;55849;48.482;2.332;2023-06-14T12:04:52;26.18;39.22
68842;SHT35;55849;48.482;2.332;2023-06-14T12:07:58;26.28;39.01
68842;SHT35;55849;48.482;2.332;2023-06-14T12:11:00;26.44;38.20
68842;SHT35;55849;48.482;2.332;2023-06-14T12:14:04;26.59;36.41
68842;SHT35;55849;48.482;2.332;2023-06-14T12:17:07;26.73;39.17
68842;SHT35;55849;48.482;2.332;2023-06-14T12:20:12;26.89;38.35
68842;SHT35;55849;48.482;2.332;2023-06-14T12:23:16;27.07;38.58
68842;SHT35;55849;48.482;2.332;2023-06-14T12:26:18;27.25;37.17
68842;SHT35;55849;48.482;2.332;2023-06-14T12:29:20;27.43;36.52
68842;SHT35;55849;48.482;2.332;2023-06-14T12:32:22;27.60;35.84
68842;SHT35;55849;48.482;2.332;2023-06-14T12:35:25;27.76;36.74
68842;SHT35;55849;48.482;2.332;2023-06-14T12:38:26;27.96;36.64
68842;SHT35;55849;48.482;2.332;2023-06-14T12:41:28;28.12;36.19
68842;SHT35;55849;48.482;2.332;2023-06-14T12:44:30;28.35;35.72
68842;SHT35;55849;48.482;2.332;2023-06-14T12:47:34;28.56;34.75
68842;SHT35;55849;48.482;2.332;2023-06-14T12:50:37;28.73;33.45
68842;SHT35;55849;48.482;2.332;2023-06-14T12:53:39;28.94;34.80
68842;SHT35;55849;48.482;2.332;2023-06-14T12:56:41;29.16;34.02
68842;SHT35;55849;48.482;2.332;2023-06-14T12:59:43;29.39;33.07
68842;SHT35;55849;48.482;2.332;2023-06-14T13:02:45;29.54;34.53
68842;SHT35;55849;48.482;2.332;2023-06-14T13:05:48;29.76;31.45
68842;SHT35;55849;48.482;2.332;2023-06-14T13:08:50;30.00;32.77
68842;SHT35;55849;48.482;2.332;2023-06-14T13:11:55;30.19;34.04
68842;SHT35;55849;48.482;2.332;2023-06-14T13:14:56;30.43;33.30
68842;SHT35;55849;48.482;2.332;2023-06-14T13:17:58;30.68;31.73
68842;SHT35;55849;48.482;2.332;2023-06-14T13:21:01;30.92;32.15
68842;SHT35;55849;48.482;2.332;2023-06-14T13:24:03;31.19;29.98
68842;SHT35;55849;48.482;2.332;2023-06-14T13:27:05;31.42;31.73
68842;SHT35;55849;48.482;2.332;2023-06-14T13:30:07;31.66;32.11
68842;SHT35;55849;48.482;2.332;2023-06-14T13:33:10;31.88;31.02
68842;SHT35;55849;48.482;2.332;2023-06-14T13:36:13;32.13;30.50
68842;SHT35;55849;48.482;2.332;2023-06-14T13:39:14;32.39;30.18
68842;SHT35;55849;48.482;2.332;2023-06-14T13:42:16;32.59;29.93
68842;SHT35;55849;48.482;2.332;2023-06-14T13:45:18;32.81;30.90
68842;SHT35;55849;48.482;2.332;2023-06-14T13:48:20;33.08;28.91
68842;SHT35;55849;48.482;2.332;2023-06-14T13:51:23;33.33;29.55
68842;SHT35;55849;48.482;2.332;2023-06-14T13:54:26;33.60;28.79
68842;SHT35;55849;48.482;2.332;2023-06-14T13:57:28;33.81;27.58
68842;SHT35;55849;48.482;2.332;2023-06-14T14:00:30;34.08;28.05
68842;SHT35;55849;48.482;2.332;2023-06-14T14:03:32;34.29;29.11
68842;SHT35;55849;48.482;2.332;2023-06-14T14:06:35;34.54;28.50
68842;SHT35;55849;48.482;2.332;2023-06-14T14:09:36;34.75;28.40
68842;SHT35;55849;48.482;2.332;2023-06-14T14:12:39;34.99;26.44
68842;SHT35;55849;48.482;2.332;2023-06-14T14:15:41;35.22;25.61
68842;SHT35;55849;48.482;2.332;2023-06-14T14:18:42;35.40;26.83
68842;SHT35;55849;48.482;2.332;2023-06-14T14:21:45;35.58;25.14
68842;SHT35;55849;48.482;2.332;2023-06-14T14:24:47;35.77;24.44
68842;SHT35;55849;48.482;2.332;2023-06-14T14:27:48;35.93;24.77
68842;SHT35;55849;48.482;2.332;2023-06-14T14:30:50;36.09;24.75
68842;SHT35;55849;48.482;2.332;2023-06-14T14:33:52;36.24;24.19
68842;SHT35;55849;48.482;2.332;2023-06-14T14:36:54;36.40;25.18
68842;SHT35;55849;48.482;2.332;2023-06-14T14:39:56;36.60;25.19
68842;SHT35;55849;48.482;2.332;2023-06-14T14:42:58;36.78;25.09
68842;SHT35;55849;48.482;2.332;2023-06-14T14:46:00;36.93;24.56
68842;SHT35;55849;48.482;2.332;2023-06-14T14:49:01;37.09;24.54
68842;SHT35;55849;48.482;2.332;2023-06-14T14:52:05;37.29;24.92
68842;SHT35;55849;48.482;2.332;2023-06-14T14:55:07;37.48;23.27
68842;SHT35;55849;48.482;2.332;2023-06-14T14:58:09;37.62;23.82
68842;SHT35;55849;48.482;2.332;2023-06-14T15:01:11;37.77;23.64
68842;SHT35;55849;48.482;2.332;2023-06-14T15:04:12;37.90;24.28
68842;SHT35;55849;48.482;2.332;2023-06-14T15:07:15;38.05;22.60
68842;SHT35;55849;48.482;2.332;2023-06-14T15:10:17;38.15;23.33
68842;SHT35;55849;48.482;2.332;2023-06-14T15:13:18;38.24;23.10
68842;SHT35;55849;48.482;2.332;2023-06-14T15:16:20;38.36;23.61
68842;SHT35;55849;48.482;2.332;2023-06-14T15:19:22;38.48;23.18
68842;SHT35;55849;48.482;2.332;2023-06-14T15:22:24;38.55;22.56
68842;SHT35;55849;48.482;2.332;2023-06-14T15:25:26;38.67;23.33
68842;SHT35;55849;48.482;2.332;2023-06-14T15:28:28;38.74;22.87
68842;SHT35;55849;48.482;2.332;2023-06-14T15:31:29;38.81;22.74
68842;SHT35;55849;48.482;2.332;2023-06-14T15:34:32;38.85;21.04
68842;SHT35;55849;48.482;2.332;2023-06-14T15:37:35;38.89;22.53
68842;SHT35;55849;48.482;2.332;2023-06-14T15:40:36;39.00;21.55
68842;SHT35;55849;48.482;2.332;2023-06-14T15:43:38;39.05;22.27
68842;SHT35;55849;48.482;2.332;2023-06-14T15:46:39;39.10;22.24
68842;SHT35;55849;48.482;2.332;2023-06-14T15:49:41;39.16;22.26
68842;SHT35;55849;48.482;2.332;2023-06-14T15:52:44;39.23;21.78
68842;SHT35;55849;48.482;2.332;2023-06-14T15:55:46;39.24;21.36
68842;SHT35;55849;48.482;2.332;2023-06-14T15:58:48;39.29;21.40
68842;SHT35;55849;48.482;2.332;2023-06-14T16:01:50;39.30;21.74
68842;SHT35;55849;48.482;2.332;2023-06-14T16:04:51;39.36;21.59
68842;SHT35;55849;48.482;2.332;2023-06-14T16:07:54;39.37;21.76
68842;SHT35;55849;48.482;2.332;2023-06-14T16:10:56;39.46;22.93
68842;SHT35;55849;48.482;2.332;2023-06-14T16:13:57;39.46;22.88
68842;SHT35;55849;48.482;2.332;2023-06-14T16:16:59;39.51;21.55
68842;SHT35;55849;48.482;2.332;2023-06-14T16:20:01;39.55;22.01
68842;SHT35;55849;48.482;2.332;2023-06-14T16:23:03;39.57;22.06
68842;SHT35;55849;48.482;2.332;2023-06-14T16:26:09;39.57;20.98
68842;SHT35;55849;48.482;2.332;2023-06-14T16:29:11;39.57;22.24
68842;SHT35;55849;48.482;2.332;2023-06-14T16:32:12;39.55;21.50
68842;SHT35;55849;48.482;2.332;2023-06-14T16:35:14;39.55;21.57
68842;SHT35;55849;48.482;2.332;2023-06-14T16:38:17;39.51;20.99
68842;SHT35;55849;48.482;2.332;2023-06-14T16:41:21;39.53;21.97
68842;SHT35;55849;48.482;2.332;2023-06-14T16:44:23;39.47;22.28
68842;SHT35;55849;48.482;2.332;2023-06-14T16:47:25;39.46;21.78
68842;SHT35;55849;48.482;2.332;2023-06-14T16:50:26;39.41;21.93
68842;SHT35;55849;48.482;2.332;2023-06-14T16:53:29;39.40;22.96
68842;SHT35;55849;48.482;2.332;2023-06-14T16:56:31;39.30;20.86
68842;SHT35;55849;48.482;2.332;2023-06-14T16:59:33;39.24;22.08
68842;SHT35;55849;48.482;2.332;2023-06-14T17:02:34;39.14;23.04
68842;SHT35;55849;48.482;2.332;2023-06-14T17:05:38;39.03;23.10
68842;SHT35;55849;48.482;2.332;2023-06-14T17:08:42;38.96;23.09
68842;SHT35;55849;48.482;2.332;2023-06-14T17:11:44;38.82;23.35
68842;SHT35;55849;48.482;2.332;2023-06-14T17:14:45;38.70;22.28
68842;SHT35;55849;48.482;2.332;2023-06-14T17:17:47;38.58;22.11
68842;SHT35;55849;48.482;2.332;2023-06-14T17:20:48;38.45;22.52
68842;SHT35;55849;48.482;2.332;2023-06-14T17:23:51;38.31;23.29
68842;SHT35;55849;48.482;2.332;2023-06-14T17:26:54;38.19;23.80
68842;SHT35;55849;48.482;2.332;2023-06-14T17:29:57;38.01;23.29
68842;SHT35;55849;48.482;2.332;2023-06-14T17:32:58;37.81;23.55
68842;SHT35;55849;48.482;2.332;2023-06-14T17:36:00;37.61;22.93
68842;SHT35;55849;48.482;2.332;2023-06-14T17:39:03;37.44;24.20
68842;SHT35;55849;48.482;2.332;2023-06-14T17:42:05;37.25;24.15
68842;SHT35;55849;48.482;2.332;2023-06-14T17:45:08;37.04;24.19
68842;SHT35;55849;48.482;2.332;2023-06-14T17:48:09;36.85;24.98
68842;SHT35;55849;48.482;2.332;2023-06-14T17:51:11;36.64;25.46
68842;SHT35;55849;48.482;2.332;2023-06-14T17:54:14;36.45;25.59
68842;SHT35;55849;48.482;2.332;2023-06-14T17:57:16;36.26;25.27
68842;SHT35;55849;48.482;2.332;2023-06-14T18:00:17;36.05;25.20
68842;SHT35;55849;48.482;2.332;2023-06-14T18:03:19;35.85;25.90
68842;SHT35;55849;48.482;2.332;2023-06-14T18:06:21;35.65;26.50
68842;SHT35;55849;48.482;2.332;2023-06-14T18:09:24;35.44;26.22
68842;SHT35;55849;48.482;2.332;2023-06-14T18:12:27;35.25;27.80
68842;SHT35;55849;48.482;2.332;2023-06-14T18:15:28;35.02;27.04
68842;SHT35;55849;48.482;2.332;2023-06-14T18:18:30;34.84;27.22
68842;SHT35;55849;48.482;2.332;2023-06-14T18:21:32;34.65;27.11
68842;SHT35;55849;48.482;2.332;2023-06-14T18:24:34;34.48;27.69
68842;SHT35;55849;48.482;2.332;2023-06-14T18:27:36;34.33;27.94
68842;SHT35;55849;48.482;2.332;2023-06-14T18:30:38;34.12;28.02
68842;SHT35;55849;48.482;2.332;2023-06-14T18:33:39;33.94;28.58
68842;SHT35;55849;48.482;2.332;2023-06-14T18:36:41;33.77;28.71
68842;SHT35;55849;48.482;2.332;2023-06-14T18:39:44;33.61;29.25
68842;SHT35;55849;48.482;2.332;2023-06-14T18:42:47;33.43;29.50
68842;SHT35;55849;48.482;2.332;2023-06-14T18:45:48;33.23;31.13
68842;SHT35;55849;48.482;2.332;2023-06-14T18:48:50;33.12;31.64
68842;SHT35;55849;48.482;2.332;2023-06-14T18:51:51;32.95;31.22
68842;SHT35;55849;48.482;2.332;2023-06-14T18:54:54;32.82;31.84
68842;SHT35;55849;48.482;2.332;2023-06-14T18:57:56;32.70;32.49
68842;SHT35;55849;48.482;2.332;2023-06-14T19:00:58;32.54;32.81
68842;SHT35;55849;48.482;2.332;2023-06-14T19:03:59;32.40;33.18
68842;SHT35;55849;48.482;2.332;2023-06-14T19:07:01;32.27;33.40
68842;SHT35;55849;48.482;2.332;2023-06-14T19:10:05;32.13;33.74
68842;SHT35;55849;48.482;2.332;2023-06-14T19:13:06;31.99;33.48
68842;SHT35;55849;48.482;2.332;2023-06-14T19:16:11;31.85;33.52
68842;SHT35;55849;48.482;2.332;2023-06-14T19:19:13;31.73;33.97